Providence Village's Hourly Summary for Tuesday, July 10, 2018
Hour Temp
(f)
RH
(%)
Solar Rad.
(MJ/m2)
Rainfall
(in)
Wind
(mph)
7/10/2018 12:00 AM 80 75 0 0 2.79
7/10/2018 1:00 AM 79 77 0 0 3.06
7/10/2018 2:00 AM 78 79 0 0 3
7/10/2018 3:00 AM 77 86 0 0 2.15
7/10/2018 4:00 AM 77 82 0 0 2.35
7/10/2018 5:00 AM 77 81 0 0 3.85
7/10/2018 6:00 AM 77 81 0 0 3.54
7/10/2018 7:00 AM 76 83 0.02 0 2.55
7/10/2018 8:00 AM 76 84 0.16 0 1.78
7/10/2018 9:00 AM 79 71 1.02 0 3.66
7/10/2018 10:00 AM 82 63 0.74 0 2.9
7/10/2018 11:00 AM 85 59 2.27 0 2.36
7/10/2018 12:00 PM 87 53 2.46 0 3.09
7/10/2018 1:00 PM 89 49 2.49 0 3.32
7/10/2018 2:00 PM 90 45 2.47 0 3.37
7/10/2018 3:00 PM 91 43 1.89 0 3.44
7/10/2018 4:00 PM 90 42 1.03 0 5.15
7/10/2018 5:00 PM 86 56 0.72 0 6.32
7/10/2018 6:00 PM 83 60 0.61 0 5.08
7/10/2018 7:00 PM 83 60 0.51 0 2.36
7/10/2018 8:00 PM 83 62 0.21 0 2.53
7/10/2018 9:00 PM 82 65 0.03 0 1.52
7/10/2018 10:00 PM 81 69 0 0 1.92
7/10/2018 11:00 PM 81 70 0 0 1.21
Data Summary 82 66 16.63 0.00 3.05